EST,Max TemperatureF,Mean TemperatureF,Min TemperatureF,Max Dew PointF,MeanDew PointF,Min DewpointF,Max Humidity, Mean Humidity, Min Humidity, Max Sea Level PressureIn, Mean Sea Level PressureIn, Min Sea Level PressureIn, Max VisibilityMiles, Mean VisibilityMiles, Min VisibilityMiles, Max Wind SpeedMPH, Mean Wind SpeedMPH, Max Gust SpeedMPH,PrecipitationIn, CloudCover, Events, WindDirDegrees
2012-2-1,70,56,42,53,40,28,100,66,31,30.18,30.11,30.03,10,10,6,17,7,23,0.05,4,Rain,218
2012-2-2,65,51,36,51,43,22,100,63,25,30.33,30.05,29.97,10,5,0,16,5,24,0.03,5,Fog-Rain,237
2012-2-3,56,42,27,30,26,23,85,57,29,30.51,30.43,30.36,10,10,10,9,2,12,0.00,0,,100
2012-2-4,50,42,33,45,36,27,100,78,56,30.34,30.17,30.09,10,7,2,14,5,16,0.25,6,Rain,102
2012-2-5,39,32,25,36,33,25,100,90,79,30.28,30.15,30.04,10,6,0,16,6,22,0.10,6,Fog-Rain,32
2012-2-6,48,35,22,34,26,19,100,75,50,30.30,30.24,30.13,10,3,0,13,4,16,0.00,4,Fog,198
2012-2-7,58,43,27,30,25,21,85,55,24,30.19,30.15,30.11,10,10,10,12,2,17,0.00,0,,223
2012-2-8,40,36,31,35,29,25,92,76,59,30.24,30.18,30.12,10,9,6,15,6,20,0.02,5,Rain,12
2012-2-9,47,37,26,25,21,18,72,52,31,30.29,30.23,30.18,10,10,10,13,3,21,0.00,1,,276
2012-2-10,47,35,22,37,28,19,92,71,49,30.19,30.07,29.89,10,10,7,13,2,16,T,3,,201
2012-2-11,44,32,20,37,20,-1,100,66,32,30.01,29.85,29.73,10,9,6,21,8,35,0.01,4,Rain,296
2012-2-12,37,27,16,9,4,-4,49,38,26,30.19,30.14,30.04,10,10,10,16,8,30,0.00,0,,287
2012-2-13,47,31,15,19,13,10,77,51,25,30.26,30.18,30.10,10,10,10,10,3,15,0.00,1,,217
2012-2-14,50,43,36,36,27,17,76,56,36,30.09,30.04,29.97,10,10,10,18,5,24,T,8,Rain,205
2012-2-15,59,47,34,36,30,25,82,55,28,30.30,30.22,30.06,10,10,10,8,2,12,0.00,2,,217
2012-2-16,49,45,41,45,41,28,100,73,46,30.26,30.12,30.02,10,8,0,8,2,12,0.11,7,Fog-Rain,196
2012-2-17,57,47,37,45,37,24,100,65,30,30.14,30.07,30.03,10,7,1,13,4,31,0.00,3,,252
2012-2-18,60,46,31,32,27,24,82,54,26,30.13,30.05,29.96,10,10,10,16,3,22,0.00,0,,207
2012-2-19,50,41,31,31,29,20,100,71,42,30.05,29.93,29.83,10,3,0,21,12,28,0.67,8,Fog-Snow,30
2012-2-20,48,34,20,30,25,19,100,69,37,30.36,30.19,29.97,10,8,1,9,1,14,0.01,1,Snow,342
2012-2-21,52,37,22,34,29,23,92,70,48,30.35,30.15,29.93,10,10,10,23,7,31,0.00,0,,199
2012-2-22,64,47,29,47,37,27,100,63,25,29.93,29.75,29.56,10,9,4,21,6,29,0.55,4,Rain-Thunderstorm,225
2012-2-23,68,52,36,51,43,36,100,73,45,29.65,29.60,29.52,10,7,1,17,6,22,T,1,,197
2012-2-24,79,60,41,59,48,20,100,68,36,29.81,29.53,29.37,10,9,1,28,11,37,0.29,4,Rain-Thunderstorm,241
2012-2-25,45,37,28,24,15,9,59,42,25,30.35,30.05,29.83,10,10,10,22,10,39,0.00,4,,277
2012-2-26,49,35,21,19,15,12,77,50,23,30.49,30.43,30.33,10,10,10,13,3,,0.00,0,,194
2012-2-27,59,43,27,41,29,19,96,66,36,30.43,30.36,30.26,10,10,10,17,7,21,T,2,,205
2012-2-28,63,47,31,37,26,19,89,55,20,30.44,30.36,30.29,10,10,10,9,5,,0.00,0,,167
2012-2-29,64,54,43,57,48,30,100,77,53,30.27,30.00,29.73,10,9,5,21,8,24,0.52,7,Rain-Thunderstorm,204